createdAt,value
2018-04-26T00:01:40.700Z,6.27
2018-04-26T00:04:43.178Z,5.77
2018-04-26T00:07:45.645Z,5.60
2018-04-26T00:10:48.240Z,5.67
2018-04-26T00:13:50.727Z,5.93
2018-04-26T00:16:53.319Z,5.70
2018-04-26T00:19:55.759Z,5.00
2018-04-26T00:22:58.308Z,4.80
2018-04-26T00:26:00.770Z,4.73
2018-04-26T00:29:03.306Z,4.90
2018-04-26T00:32:05.841Z,5.03
2018-04-26T00:35:08.321Z,5.87
2018-04-26T00:38:10.818Z,5.30
2018-04-26T00:41:13.391Z,5.63
2018-04-26T00:44:15.943Z,5.30
2018-04-26T00:47:18.401Z,5.73
2018-04-26T00:50:20.865Z,5.07
2018-04-26T00:53:23.344Z,4.80
2018-04-26T00:56:25.841Z,6.10
2018-04-26T00:59:29.270Z,5.10
2018-04-26T01:02:31.780Z,4.90
2018-04-26T01:05:34.275Z,5.07
2018-04-26T01:08:36.744Z,4.80
2018-04-26T01:11:39.211Z,4.90
2018-04-26T01:14:41.691Z,6.07
2018-04-26T01:17:44.138Z,5.40
2018-04-26T01:20:46.603Z,5.67
2018-04-26T01:23:49.074Z,5.33
2018-04-26T01:26:51.602Z,5.27
2018-04-26T01:29:54.046Z,5.87
2018-04-26T01:32:56.645Z,5.20
2018-04-26T01:35:59.122Z,5.43
2018-04-26T01:39:01.608Z,5.73
2018-04-26T01:42:04.061Z,5.60
2018-04-26T01:45:06.577Z,5.80
2018-04-26T01:48:09.255Z,5.20
2018-04-26T01:51:11.711Z,6.27
2018-04-26T01:54:14.277Z,5.90
2018-04-26T01:57:16.727Z,6.20
2018-04-26T02:00:19.214Z,5.83
2018-04-26T02:03:21.691Z,6.30
2018-04-26T02:06:24.161Z,6.00
2018-04-26T02:09:26.659Z,6.13
2018-04-26T02:12:29.130Z,5.93
2018-04-26T02:15:31.596Z,5.90
2018-04-26T02:18:34.070Z,6.67
2018-04-26T02:21:36.543Z,6.00
2018-04-26T02:24:39.084Z,5.67
2018-04-26T02:27:41.546Z,5.67
2018-04-26T02:30:44.025Z,5.43
2018-04-26T02:33:46.481Z,5.50
2018-04-26T02:36:48.985Z,5.60
2018-04-26T02:39:51.445Z,5.60
2018-04-26T02:42:54.130Z,6.17
2018-04-26T02:45:56.608Z,5.70
2018-04-26T02:48:59.081Z,5.53
2018-04-26T02:52:01.536Z,5.60
2018-04-26T02:55:04.097Z,6.20
2018-04-26T02:58:06.571Z,7.00
2018-04-26T03:01:09.090Z,6.03
2018-04-26T03:04:11.568Z,6.53
2018-04-26T03:07:14.056Z,6.70
2018-04-26T03:10:16.524Z,6.30
2018-04-26T03:13:19.065Z,6.70
2018-04-26T03:16:21.630Z,6.87
2018-04-26T03:19:24.104Z,6.90
2018-04-26T03:22:26.590Z,7.20
2018-04-26T03:25:29.120Z,6.70
2018-04-26T03:28:31.575Z,7.30
2018-04-26T03:31:34.100Z,7.10
2018-04-26T03:34:36.571Z,6.90
2018-04-26T03:37:39.071Z,6.97
2018-04-26T03:40:41.537Z,6.80
2018-04-26T03:43:43.979Z,7.10
2018-04-26T03:46:46.442Z,6.13
2018-04-26T03:49:48.887Z,6.77
2018-04-26T03:52:51.372Z,6.10
2018-04-26T03:55:53.823Z,6.00
2018-04-26T03:58:56.309Z,6.47
2018-04-26T04:02:10.619Z,6.00
2018-04-26T04:05:25.093Z,6.30
2018-04-26T04:08:27.559Z,6.10
2018-04-26T04:11:30.057Z,5.90
2018-04-26T04:14:32.524Z,5.93
2018-04-26T04:17:35.036Z,4.77
2018-04-26T04:20:37.488Z,4.43
2018-04-26T04:23:40.016Z,4.80
2018-04-26T04:26:42.476Z,4.00
2018-04-26T04:29:44.987Z,3.30
2018-04-26T04:32:47.472Z,3.27
2018-04-26T04:35:49.941Z,2.63
2018-04-26T04:38:52.403Z,2.43
2018-04-26T04:41:54.917Z,2.60
2018-04-26T04:44:57.393Z,2.63
2018-04-26T04:47:59.904Z,2.70
2018-04-26T04:51:02.356Z,2.60
2018-04-26T04:54:04.930Z,3.00
2018-04-26T04:57:07.384Z,2.57
2018-04-26T05:00:09.836Z,3.60
2018-04-26T05:03:12.286Z,3.43
2018-04-26T05:06:14.779Z,3.73
2018-04-26T05:09:17.230Z,3.70
2018-04-26T05:12:19.713Z,3.70
2018-04-26T05:15:22.207Z,3.30
2018-04-26T05:18:24.712Z,4.13
2018-04-26T05:21:27.194Z,3.80
2018-04-26T05:24:29.743Z,3.53
2018-04-26T05:27:32.249Z,3.40
2018-04-26T05:30:34.767Z,3.20
2018-04-26T05:33:37.392Z,3.50
2018-04-26T05:36:39.797Z,3.00
2018-04-26T05:39:42.358Z,3.00
2018-04-26T05:42:44.881Z,2.50
2018-04-26T05:45:47.346Z,2.43
2018-04-26T05:48:49.938Z,2.40
2018-04-26T05:51:52.392Z,2.50
2018-04-26T05:54:54.878Z,2.53
2018-04-26T05:57:57.345Z,2.53
2018-04-26T06:00:59.794Z,2.90
2018-04-26T06:04:02.296Z,2.53
2018-04-26T06:07:04.739Z,2.70
2018-04-26T06:10:07.244Z,2.80
2018-04-26T06:13:09.725Z,2.93
2018-04-26T06:16:12.255Z,3.23
2018-04-26T06:19:14.745Z,3.53
2018-04-26T06:22:17.239Z,3.10
2018-04-26T06:25:19.714Z,3.90
2018-04-26T06:28:22.137Z,3.97
2018-04-26T06:31:24.714Z,4.20
2018-04-26T06:34:27.211Z,4.57
2018-04-26T06:37:29.715Z,4.07
2018-04-26T06:40:32.376Z,4.90
2018-04-26T06:43:34.856Z,4.50
2018-04-26T06:46:37.289Z,5.07
2018-04-26T06:49:39.779Z,5.40
2018-04-26T06:52:42.319Z,5.30
2018-04-26T06:55:44.855Z,6.23
2018-04-26T06:58:47.412Z,6.20
2018-04-26T07:01:49.874Z,6.20
2018-04-26T07:04:52.396Z,6.47
2018-04-26T07:07:55.036Z,6.27
2018-04-26T07:10:57.472Z,6.73
2018-04-26T07:13:59.949Z,7.40
2018-04-26T07:17:02.461Z,8.00
2018-04-26T07:20:04.957Z,7.27
2018-04-26T07:23:07.431Z,8.50
2018-04-26T07:26:09.922Z,8.20
2018-04-26T07:29:12.565Z,8.20
2018-04-26T07:32:15.025Z,7.90
2018-04-26T07:35:17.524Z,8.90
2018-04-26T07:38:19.981Z,9.23
2018-04-26T07:41:22.483Z,9.47
2018-04-26T07:44:24.967Z,9.07
2018-04-26T07:47:27.461Z,9.77
2018-04-26T07:50:29.950Z,10.07
2018-04-26T07:53:32.415Z,10.23
2018-04-26T07:56:34.880Z,10.30
2018-04-26T07:59:37.356Z,10.97
2018-04-26T08:02:39.821Z,11.17
2018-04-26T08:05:42.311Z,11.03
2018-04-26T08:08:44.756Z,10.80
2018-04-26T08:11:47.368Z,11.07
2018-04-26T08:14:49.780Z,11.13
2018-04-26T08:17:52.277Z,11.67
2018-04-26T08:20:54.778Z,12.37
2018-04-26T08:23:57.260Z,11.00
2018-04-26T08:26:59.792Z,11.70
2018-04-26T08:30:02.285Z,10.87
2018-04-26T08:33:04.829Z,10.80
2018-04-26T08:36:07.335Z,5.77
2018-04-26T08:39:09.796Z,4.30
2018-04-26T08:42:12.285Z,3.10
2018-04-26T08:45:14.736Z,3.13
2018-04-26T08:48:17.270Z,2.63
2018-04-26T08:51:19.707Z,2.73
2018-04-26T08:54:22.189Z,2.83
2018-04-26T08:57:24.677Z,3.70
2018-04-26T09:00:27.120Z,3.70
2018-04-26T09:03:29.651Z,3.90
2018-04-26T09:06:32.094Z,5.47
2018-04-26T09:09:34.555Z,8.23
2018-04-26T09:12:37.006Z,8.23
2018-04-26T09:15:39.511Z,8.20
2018-04-26T09:18:41.995Z,9.33
2018-04-26T09:21:44.501Z,9.43
2018-04-26T09:24:46.937Z,8.30
2018-04-26T09:27:49.426Z,8.57
2018-04-26T09:30:51.884Z,9.43
2018-04-26T09:33:54.377Z,8.13
2018-04-26T09:36:57.030Z,9.50
2018-04-26T09:39:59.461Z,8.90
2018-04-26T09:43:01.983Z,8.93
2018-04-26T09:46:04.558Z,9.50
2018-04-26T09:49:07.002Z,8.10
2018-04-26T09:52:09.583Z,8.90
2018-04-26T09:55:12.061Z,8.63
2018-04-26T09:58:14.571Z,7.53
2018-04-26T10:01:20.776Z,7.90
2018-04-26T10:04:23.320Z,7.20
2018-04-26T10:07:25.886Z,6.93
2018-04-26T10:10:28.496Z,6.20
2018-04-26T10:13:30.939Z,5.57
2018-04-26T10:16:33.434Z,6.30
2018-04-26T10:19:35.994Z,6.27
2018-04-26T10:22:38.446Z,6.03
2018-04-26T10:25:40.939Z,5.80
2018-04-26T10:28:43.446Z,4.60
2018-04-26T10:31:45.913Z,4.30
2018-04-26T10:34:48.433Z,4.40
2018-04-26T10:37:50.906Z,3.90
2018-04-26T10:40:53.381Z,4.37
2018-04-26T10:43:55.876Z,5.00
2018-04-26T10:46:58.423Z,4.87
2018-04-26T10:50:00.892Z,4.33
2018-04-26T10:53:03.426Z,4.27
2018-04-26T10:56:05.927Z,4.37
2018-04-26T10:59:08.683Z,3.70
2018-04-26T11:02:11.145Z,3.77
2018-04-26T11:05:13.616Z,3.50
2018-04-26T11:08:16.065Z,4.20
2018-04-26T11:11:18.646Z,3.60
2018-04-26T11:14:21.088Z,4.00
2018-04-26T11:17:23.587Z,4.33
2018-04-26T11:20:26.060Z,3.97
2018-04-26T11:23:28.573Z,2.70
2018-04-26T11:26:31.077Z,2.87
2018-04-26T11:29:33.558Z,2.50
2018-04-26T11:32:36.038Z,2.33
2018-04-26T11:35:38.573Z,2.80
2018-04-26T11:38:41.159Z,2.60
2018-04-26T11:41:43.667Z,2.80
2018-04-26T11:44:46.184Z,3.00
2018-04-26T11:47:48.641Z,3.20
2018-04-26T11:50:51.076Z,3.00
2018-04-26T11:53:53.567Z,4.17
2018-04-26T11:56:56.050Z,4.20
2018-04-26T11:59:58.562Z,4.13
2018-04-26T12:03:01.052Z,5.17
2018-04-26T12:06:03.545Z,4.73
2018-04-26T12:09:06.950Z,4.87
2018-04-26T12:12:09.463Z,4.40
2018-04-26T12:15:11.984Z,3.80
2018-04-26T12:18:14.484Z,3.73
2018-04-26T12:21:16.935Z,3.87
2018-04-26T12:24:19.428Z,3.97
2018-04-26T12:27:21.882Z,3.63
2018-04-26T12:30:24.425Z,3.77
2018-04-26T12:33:26.905Z,3.43
2018-04-26T12:36:29.404Z,3.13
2018-04-26T12:39:31.962Z,3.17
2018-04-26T12:42:34.393Z,2.50
2018-04-26T12:45:36.869Z,3.20
2018-04-26T12:48:39.320Z,3.07
2018-04-26T12:51:41.825Z,3.47
2018-04-26T12:54:44.314Z,3.43
2018-04-26T12:57:46.797Z,2.93
2018-04-26T13:00:49.364Z,2.83
2018-04-26T13:03:51.918Z,2.73
2018-04-26T13:06:54.484Z,2.37
2018-04-26T13:09:57.047Z,2.40
2018-04-26T13:12:59.703Z,2.37
2018-04-26T13:16:02.217Z,2.40
2018-04-26T13:19:04.703Z,2.80
2018-04-26T13:22:07.245Z,3.03
2018-04-26T13:25:09.724Z,3.70
2018-04-26T13:28:12.989Z,3.30
2018-04-26T13:31:15.478Z,3.70
2018-04-26T13:34:17.985Z,4.57
2018-04-26T13:37:20.519Z,4.63
2018-04-26T13:40:22.962Z,4.13
2018-04-26T13:43:25.528Z,4.70
2018-04-26T13:46:28.090Z,4.60
2018-04-26T13:49:30.544Z,5.70
2018-04-26T13:52:33.059Z,5.13
2018-04-26T13:55:35.510Z,5.20
2018-04-26T13:58:37.979Z,4.40
2018-04-26T14:01:40.477Z,5.20
2018-04-26T14:04:43.020Z,5.17
2018-04-26T14:07:45.532Z,5.27
2018-04-26T14:10:48.007Z,4.70
2018-04-26T14:13:50.503Z,5.83
2018-04-26T14:16:53.219Z,5.47
2018-04-26T14:19:55.695Z,5.13
2018-04-26T14:22:58.252Z,4.93
2018-04-26T14:26:00.756Z,5.10
2018-04-26T14:29:03.251Z,4.33
2018-04-26T14:32:05.779Z,4.80
2018-04-26T14:35:08.321Z,5.30
2018-04-26T14:38:10.852Z,5.07
2018-04-26T14:41:13.316Z,5.30
2018-04-26T14:44:15.840Z,5.23
2018-04-26T14:47:18.364Z,4.77
2018-04-26T14:50:20.886Z,3.40
2018-04-26T14:53:23.428Z,3.90
2018-04-26T14:56:26.128Z,3.80
2018-04-26T14:59:28.619Z,4.17
2018-04-26T15:02:31.096Z,4.03
2018-04-26T15:05:33.591Z,4.37
2018-04-26T15:08:36.178Z,4.10
2018-04-26T15:11:38.642Z,4.70
2018-04-26T15:14:41.256Z,4.60
2018-04-26T15:17:43.700Z,4.77
2018-04-26T15:20:46.181Z,4.90
2018-04-26T15:23:48.603Z,5.03
2018-04-26T15:26:51.095Z,5.30
2018-04-26T15:29:53.565Z,5.20
2018-04-26T15:32:56.073Z,5.20
2018-04-26T15:35:58.629Z,5.53
2018-04-26T15:39:01.105Z,5.23
2018-04-26T15:42:03.779Z,5.60
2018-04-26T15:45:06.272Z,5.50
2018-04-26T15:48:08.748Z,6.00
2018-04-26T15:51:11.340Z,5.63
2018-04-26T15:54:25.704Z,6.10
2018-04-26T16:01:34.346Z,5.90
2018-04-26T16:04:48.674Z,4.83
2018-04-26T16:08:08.929Z,3.80
2018-04-26T16:11:23.316Z,3.37
2018-04-26T16:14:37.717Z,3.00
2018-04-26T16:18:09.646Z,3.20
2018-04-26T16:21:36.782Z,2.90
2018-04-26T16:24:54.074Z,2.77
2018-04-26T16:28:08.240Z,2.87
2018-04-26T16:31:28.456Z,2.67
2018-04-26T16:34:52.317Z,3.13
2018-04-26T16:38:12.278Z,3.50
2018-04-26T16:41:14.727Z,3.50
2018-04-26T16:44:17.340Z,3.80
2018-04-26T16:47:19.823Z,3.40
2018-04-26T16:50:22.303Z,3.20
2018-04-26T16:53:24.830Z,3.10
2018-04-26T16:56:27.341Z,3.67
2018-04-26T16:59:29.874Z,3.30
2018-04-26T17:02:32.378Z,3.50
2018-04-26T17:05:35.053Z,3.80
2018-04-26T17:08:37.535Z,3.30
2018-04-26T17:11:40.140Z,3.43
2018-04-26T17:14:42.544Z,3.20
2018-04-26T17:17:45.486Z,2.97
2018-04-26T17:20:48.018Z,3.50
2018-04-26T17:23:50.617Z,3.30
2018-04-26T17:26:53.099Z,3.53
2018-04-26T17:29:55.641Z,4.27
2018-04-26T17:32:58.096Z,3.50
2018-04-26T17:36:00.576Z,4.37
2018-04-26T17:39:03.041Z,4.33
2018-04-26T17:42:05.596Z,4.63
2018-04-26T17:45:08.107Z,4.50
2018-04-26T17:48:10.618Z,4.43
2018-04-26T17:51:13.136Z,4.53
2018-04-26T17:54:15.640Z,4.73
2018-04-26T17:57:18.215Z,4.73
2018-04-26T18:00:20.696Z,5.20
2018-04-26T18:03:23.216Z,4.97
2018-04-26T18:06:25.716Z,4.60
2018-04-26T18:09:28.284Z,4.83
2018-04-26T18:12:30.893Z,5.70
2018-04-26T18:15:33.325Z,5.47
2018-04-26T18:18:35.888Z,5.80
2018-04-26T18:21:38.341Z,5.70
2018-04-26T18:24:40.848Z,5.93
2018-04-26T18:27:43.321Z,6.50
2018-04-26T18:30:45.805Z,6.40
2018-04-26T18:33:48.316Z,7.40
2018-04-26T18:36:50.856Z,7.07
2018-04-26T18:39:53.396Z,8.13
2018-04-26T18:42:55.972Z,7.70
2018-04-26T18:45:58.521Z,7.43
2018-04-26T18:49:01.102Z,7.50
2018-04-26T18:52:03.628Z,8.20
2018-04-26T18:55:06.203Z,8.20
2018-04-26T18:58:08.786Z,8.00
2018-04-26T19:01:11.307Z,8.20
2018-04-26T19:04:13.827Z,8.67
2018-04-26T19:07:16.343Z,8.57
2018-04-26T19:10:18.829Z,9.50
2018-04-26T19:13:21.304Z,9.33
2018-04-26T19:16:23.858Z,8.37
2018-04-26T19:19:26.329Z,8.83
2018-04-26T19:22:28.866Z,8.93
2018-04-26T19:25:31.361Z,9.30
2018-04-26T19:28:33.881Z,9.20
2018-04-26T19:31:36.343Z,9.70
2018-04-26T19:34:38.885Z,9.80
2018-04-26T19:37:41.423Z,10.23
2018-04-26T19:40:43.934Z,10.90
2018-04-26T19:43:46.394Z,9.60
2018-04-26T19:46:48.948Z,10.47
2018-04-26T19:49:51.472Z,11.67
2018-04-26T19:52:54.014Z,11.10
2018-04-26T19:55:56.566Z,11.47
2018-04-26T19:58:59.111Z,11.73
2018-04-26T20:02:02.640Z,11.67
2018-04-26T20:05:05.170Z,12.73
2018-04-26T20:08:07.738Z,12.90
2018-04-26T20:11:10.226Z,12.73
2018-04-26T20:14:12.740Z,12.80
2018-04-26T20:17:15.283Z,11.80
2018-04-26T20:20:17.918Z,12.80
2018-04-26T20:23:20.540Z,12.30
2018-04-26T20:26:23.019Z,12.60
2018-04-26T20:29:25.507Z,13.03
2018-04-26T20:32:27.962Z,13.33
2018-04-26T20:35:30.478Z,13.27
2018-04-26T20:38:32.989Z,13.27
2018-04-26T20:41:47.141Z,12.93
2018-04-26T20:44:49.682Z,13.40
2018-04-26T20:47:52.201Z,13.40
2018-04-26T20:50:54.761Z,13.17
2018-04-26T20:53:57.263Z,13.40
2018-04-26T20:56:59.754Z,14.10
2018-04-26T21:00:02.295Z,12.53
2018-04-26T21:03:04.813Z,12.80
2018-04-26T21:06:07.364Z,13.80
2018-04-26T21:09:09.879Z,13.00
2018-04-26T21:12:12.437Z,13.07
2018-04-26T21:15:14.980Z,14.57
2018-04-26T21:18:17.544Z,13.10
2018-04-26T21:21:20.050Z,13.13
2018-04-26T21:24:22.560Z,13.27
2018-04-26T21:27:25.041Z,11.67
2018-04-26T21:30:27.533Z,12.40
2018-04-26T21:33:30.033Z,11.77
2018-04-26T21:36:32.648Z,11.43
2018-04-26T21:39:35.196Z,10.67
2018-04-26T21:42:37.728Z,10.70
2018-04-26T21:45:40.266Z,10.77
2018-04-26T21:48:42.753Z,10.67
2018-04-26T21:51:50.755Z,11.20
2018-04-26T21:54:58.943Z,10.50
2018-04-26T21:58:07.161Z,10.90
2018-04-26T22:01:15.172Z,10.93
2018-04-26T22:07:54.968Z,12.20
2018-04-26T22:10:57.438Z,12.57
2018-04-26T22:13:59.884Z,12.50
2018-04-26T22:17:02.385Z,12.37
2018-04-26T22:20:04.896Z,14.50
2018-04-26T22:23:07.439Z,13.90
2018-04-26T22:26:09.892Z,13.20
2018-04-26T22:29:12.383Z,13.80
2018-04-26T22:32:14.851Z,13.20
2018-04-26T22:35:17.349Z,14.40
2018-04-26T22:38:19.831Z,14.67
2018-04-26T22:41:22.320Z,13.47
2018-04-26T22:44:24.869Z,13.90
2018-04-26T22:47:27.426Z,15.50
2018-04-26T22:50:29.915Z,14.97
2018-04-26T22:53:32.401Z,15.00
2018-04-26T22:56:34.835Z,16.13
2018-04-26T22:59:37.323Z,15.47
2018-04-26T23:02:39.784Z,16.40
2018-04-26T23:05:42.319Z,15.50
2018-04-26T23:08:44.799Z,15.90
2018-04-26T23:11:47.270Z,16.20
2018-04-26T23:14:49.798Z,16.50
2018-04-26T23:17:52.286Z,15.60
2018-04-26T23:20:54.759Z,16.80
2018-04-26T23:23:57.204Z,16.53
2018-04-26T23:26:59.680Z,16.10
2018-04-26T23:30:02.153Z,16.00
2018-04-26T23:33:04.654Z,15.10
2018-04-26T23:36:07.130Z,15.97
2018-04-26T23:39:09.605Z,15.67
2018-04-26T23:42:12.151Z,15.90
2018-04-26T23:45:14.637Z,15.80
2018-04-26T23:48:17.173Z,15.03
2018-04-26T23:51:19.643Z,15.67
2018-04-26T23:54:22.094Z,16.07
2018-04-26T23:57:24.591Z,16.63
